Time;durP1;ratioP1;P1;durP2;ratioP2;P2;SDS_P1;SDS_P2;PMS_P1;PMS_P2;Temp;Humidity;BMP_temperature;BMP_pressure;BME280_temperature;BME280_humidity;BME280_pressure;Samples;Min_cycle;Max_cycle;Signal;HPM_P1;HPM_P2
2022/01/07 00:00:16;;;;;;;3.17;1.52;;;3.80;90.60;;;;;;6293421;22;20000;-78
2022/01/07 00:02:45;;;;;;;2.72;1.42;;;3.80;90.60;;;;;;6292538;22;20000;-78
2022/01/07 00:05:12;;;;;;;3.38;1.50;;;3.70;90.50;;;;;;6288910;22;20029;-79
2022/01/07 00:07:39;;;;;;;2.33;1.30;;;3.90;90.50;;;;;;6262384;22;20065;-79
2022/01/07 00:10:06;;;;;;;3.95;1.30;;;3.90;90.50;;;;;;6262269;22;20407;-78
2022/01/07 00:12:32;;;;;;;2.58;1.40;;;3.90;90.50;;;;;;6289588;22;20057;-79
2022/01/07 00:14:57;;;;;;;3.42;1.45;;;3.90;90.50;;;;;;6289772;22;20007;-78
2022/01/07 00:17:23;;;;;;;2.72;1.63;;;3.90;90.50;;;;;;6292802;22;20031;-78
2022/01/07 00:19:49;;;;;;;5.63;1.60;;;3.90;90.50;;;;;;6240955;22;19984;-79
2022/01/07 00:22:15;;;;;;;4.70;1.70;;;3.90;90.50;;;;;;6264114;22;20030;-78
2022/01/07 00:24:40;;;;;;;3.95;1.38;;;3.90;90.50;;;;;;6290992;22;20018;-78
2022/01/07 00:27:07;;;;;;;3.92;1.70;;;3.90;90.40;;;;;;6293169;22;20007;-78
2022/01/07 00:29:33;;;;;;;4.03;1.80;;;3.90;90.40;;;;;;6289514;22;20000;-79
2022/01/07 00:31:58;;;;;;;4.13;1.92;;;4.00;90.30;;;;;;6234358;22;20006;-79
2022/01/07 00:34:24;;;;;;;2.70;1.60;;;3.90;90.30;;;;;;6286702;22;20070;-79
2022/01/07 00:36:50;;;;;;;3.55;1.88;;;3.90;90.20;;;;;;6285293;22;20015;-79
2022/01/07 00:39:16;;;;;;;5.53;1.77;;;3.90;90.20;;;;;;6258371;22;19999;-79
2022/01/07 00:41:41;;;;;;;2.97;1.67;;;4.00;90.20;;;;;;6287954;22;19996;-78
2022/01/07 00:44:07;;;;;;;3.88;1.60;;;3.90;90.20;;;;;;6259738;22;20011;-79
2022/01/07 00:46:33;;;;;;;4.63;1.80;;;3.90;90.20;;;;;;6264535;22;19999;-79
2022/01/07 00:48:59;;;;;;;4.63;1.80;;;3.90;90.20;;;;;;6289430;22;20042;-80
2022/01/07 00:51:25;;;;;;;3.75;1.95;;;3.90;90.20;;;;;;6285092;22;19991;-78
2022/01/07 00:53:50;;;;;;;5.20;2.15;;;3.90;90.20;;;;;;6258256;22;20033;-77
2022/01/07 00:56:16;;;;;;;6.43;2.25;;;3.80;90.20;;;;;;6258220;22;20006;-78
2022/01/07 00:58:42;;;;;;;4.93;2.20;;;3.70;90.20;;;;;;6288546;22;20030;-78
2022/01/07 01:01:08;;;;;;;4.70;2.20;;;3.70;90.20;;;;;;6288016;22;20019;-78
2022/01/07 01:03:33;;;;;;;4.20;1.95;;;3.70;90.30;;;;;;6289444;22;20545;-79
2022/01/07 01:05:59;;;;;;;4.82;2.10;;;3.70;90.30;;;;;;6263674;22;20004;-79
2022/01/07 01:08:27;;;;;;;4.72;2.05;;;3.70;90.40;;;;;;6284733;22;19984;-78
2022/01/07 01:10:53;;;;;;;4.03;2.00;;;3.60;90.40;;;;;;6306945;22;20000;-78
2022/01/07 01:13:19;;;;;;;5.95;2.28;;;3.60;90.40;;;;;;6285980;22;20003;-78
2022/01/07 01:15:45;;;;;;;4.03;2.00;;;3.50;90.40;;;;;;6254556;22;20051;-79
2022/01/07 01:18:11;;;;;;;5.38;2.08;;;3.50;90.40;;;;;;6252369;22;20427;-79
2022/01/07 01:20:38;;;;;;;6.47;2.30;;;3.50;90.50;;;;;;6280735;22;19996;-79
2022/01/07 01:23:05;;;;;;;4.03;1.98;;;3.50;90.50;;;;;;6252772;22;20003;-79
2022/01/07 01:25:31;;;;;;;5.10;2.22;;;3.40;90.50;;;;;;6226482;22;20039;-79
2022/01/07 01:27:58;;;;;;;3.95;1.85;;;3.40;90.60;;;;;;6276245;22;20003;-79
2022/01/07 01:30:27;;;;;;;3.90;2.13;;;3.40;90.60;;;;;;6277846;22;20039;-79
2022/01/07 01:32:54;;;;;;;4.63;2.17;;;3.40;90.70;;;;;;6286283;22;20027;-79
2022/01/07 01:35:20;;;;;;;3.58;1.75;;;3.30;90.70;;;;;;6304434;22;20004;-79
2022/01/07 01:37:48;;;;;;;3.60;1.95;;;3.30;90.70;;;;;;6278454;22;20016;-79
2022/01/07 01:40:16;;;;;;;3.22;1.60;;;3.30;90.80;;;;;;6276444;22;20392;-79
2022/01/07 01:42:41;;;;;;;2.65;1.40;;;3.20;90.80;;;;;;6277523;22;20030;-80
2022/01/07 01:45:10;;;;;;;3.53;1.30;;;3.20;90.80;;;;;;6278710;22;20016;-79
2022/01/07 01:47:36;;;;;;;3.00;1.38;;;3.20;90.90;;;;;;6309751;22;20007;-80
2022/01/07 01:50:04;;;;;;;4.25;2.05;;;3.20;90.90;;;;;;6284236;22;20019;-79
2022/01/07 01:52:29;;;;;;;4.72;1.42;;;3.20;90.90;;;;;;6259219;22;20455;-79
2022/01/07 01:54:55;;;;;;;3.30;1.58;;;3.20;90.90;;;;;;6258087;22;20004;-79
2022/01/07 01:57:21;;;;;;;2.17;1.27;;;3.20;90.90;;;;;;6231442;22;20452;-79
2022/01/07 01:59:47;;;;;;;1.65;1.20;;;3.20;90.90;;;;;;6281561;22;20000;-79
2022/01/07 02:02:12;;;;;;;5.20;1.45;;;3.30;90.90;;;;;;6287341;22;20003;-79
2022/01/07 02:04:39;;;;;;;3.97;1.58;;;3.30;90.90;;;;;;6287882;22;20067;-79
2022/01/07 02:07:08;;;;;;;3.97;1.75;;;3.30;90.90;;;;;;6279403;22;20015;-79
2022/01/07 02:09:35;;;;;;;2.55;1.30;;;3.30;90.90;;;;;;6225664;22;20113;-79
2022/01/07 02:12:05;;;;;;;4.97;1.98;;;3.30;90.90;;;;;;6253887;22;20079;-79
2022/01/07 02:14:30;;;;;;;3.72;1.67;;;3.30;90.90;;;;;;6227989;22;20026;-79
2022/01/07 02:17:05;;;;;;;3.35;1.48;;;3.30;90.90;;;;;;6228869;22;20424;-79
2022/01/07 02:19:31;;;;;;;5.47;1.60;;;3.30;90.90;;;;;;6251679;22;19996;-79
2022/01/07 02:21:57;;;;;;;2.90;1.50;;;3.30;90.90;;;;;;6276280;22;20087;-79
2022/01/07 02:24:22;;;;;;;3.88;1.40;;;3.30;90.90;;;;;;6277755;22;20003;-79
2022/01/07 02:26:48;;;;;;;2.13;1.10;;;3.40;90.90;;;;;;6251161;22;20390;-79
2022/01/07 02:29:14;;;;;;;2.28;1.20;;;3.40;90.90;;;;;;6277120;22;20008;-79
2022/01/07 02:31:40;;;;;;;2.92;1.45;;;3.30;90.90;;;;;;6256230;22;20050;-78
2022/01/07 02:34:06;;;;;;;4.13;1.85;;;3.40;91.20;;;;;;6281324;22;20035;-78
2022/01/07 02:36:31;;;;;;;4.18;1.98;;;3.40;90.90;;;;;;6260599;22;20301;-79
2022/01/07 02:38:57;;;;;;;3.70;1.70;;;3.40;90.90;;;;;;6279308;22;20008;-80
2022/01/07 02:41:23;;;;;;;3.92;1.75;;;3.40;90.90;;;;;;6282128;22;19995;-79
2022/01/07 02:43:49;;;;;;;3.22;1.40;;;3.40;90.90;;;;;;6237214;22;20407;-79
2022/01/07 02:46:15;;;;;;;2.88;1.50;;;3.40;90.90;;;;;;6286283;22;20322;-79
2022/01/07 02:48:41;;;;;;;4.03;1.70;;;3.50;90.90;;;;;;6261721;22;19992;-79
2022/01/07 02:51:06;;;;;;;3.85;1.90;;;3.40;90.90;;;;;;6255289;22;20004;-79
2022/01/07 02:53:32;;;;;;;5.30;2.25;;;3.40;90.90;;;;;;6251958;22;20307;-78
2022/01/07 02:55:58;;;;;;;4.80;2.00;;;3.40;90.90;;;;;;6266261;22;20000;-79
2022/01/07 02:58:23;;;;;;;2.90;1.60;;;3.40;90.90;;;;;;6292086;22;20047;-79
2022/01/07 03:00:49;;;;;;;3.83;1.38;;;3.40;90.90;;;;;;6287306;22;20000;-79
2022/01/07 03:03:15;;;;;;;3.78;1.65;;;3.40;90.90;;;;;;6285282;22;20771;-79
2022/01/07 03:05:42;;;;;;;4.13;1.60;;;3.40;90.90;;;;;;6255275;22;20000;-79
2022/01/07 03:08:09;;;;;;;2.67;1.58;;;3.40;91.00;;;;;;6281124;22;20004;-79
2022/01/07 03:10:35;;;;;;;3.03;1.30;;;3.40;91.00;;;;;;6257843;22;20011;-79
2022/01/07 03:13:03;;;;;;;4.63;1.40;;;3.40;91.00;;;;;;6278075;22;20324;-79
2022/01/07 03:15:30;;;;;;;2.25;1.00;;;3.40;91.00;;;;;;6304366;22;20004;-79
2022/01/07 03:17:56;;;;;;;1.88;1.08;;;3.40;91.00;;;;;;6279852;22;20095;-79
2022/01/07 03:20:22;;;;;;;1.45;0.90;;;3.40;91.10;;;;;;6250564;22;20000;-79
2022/01/07 03:22:49;;;;;;;2.00;1.13;;;3.40;91.10;;;;;;6276475;22;19996;-80
2022/01/07 03:25:16;;;;;;;2.80;1.05;;;3.40;91.10;;;;;;6281837;22;20328;-79
2022/01/07 03:27:42;;;;;;;2.95;1.15;;;3.40;91.10;;;;;;6308568;22;20022;-79
2022/01/07 03:30:09;;;;;;;3.47;1.20;;;3.40;91.10;;;;;;6278086;22;19999;-79
2022/01/07 03:32:35;;;;;;;0.90;0.75;;;3.40;91.00;;;;;;6304987;22;20332;-79
2022/01/07 03:35:01;;;;;;;2.53;1.13;;;3.40;91.10;;;;;;6280885;22;20004;-79
2022/01/07 03:37:27;;;;;;;2.80;1.02;;;3.40;91.00;;;;;;6278366;22;20014;-79
2022/01/07 03:39:53;;;;;;;3.03;1.17;;;3.50;91.10;;;;;;6252228;22;20586;-79
2022/01/07 03:42:18;;;;;;;2.35;1.50;;;3.50;91.10;;;;;;6284265;22;20026;-78
2022/01/07 03:44:44;;;;;;;2.90;1.50;;;3.40;91.10;;;;;;6280173;22;20091;-78
2022/01/07 03:47:10;;;;;;;3.20;1.38;;;3.40;91.10;;;;;;6251143;22;20515;-79
2022/01/07 03:49:36;;;;;;;2.67;1.38;;;3.40;91.10;;;;;;6251818;22;20073;-79
2022/01/07 03:52:03;;;;;;;1.83;1.17;;;3.40;91.10;;;;;;6256152;22;20087;-79
2022/01/07 03:54:28;;;;;;;2.70;1.25;;;3.40;91.20;;;;;;6276567;22;20015;-79
2022/01/07 03:56:54;;;;;;;3.10;1.40;;;3.40;91.20;;;;;;6277610;22;20447;-79
2022/01/07 03:59:20;;;;;;;2.10;1.38;;;3.30;91.20;;;;;;6253923;22;20083;-79
2022/01/07 04:01:45;;;;;;;1.73;1.10;;;3.30;91.20;;;;;;6252186;22;20323;-79
2022/01/07 04:04:11;;;;;;;1.77;1.23;;;3.30;91.30;;;;;;6254189;22;20027;-79
2022/01/07 04:06:37;;;;;;;2.13;1.10;;;3.30;91.30;;;;;;6277620;22;20334;-81
2022/01/07 04:09:03;;;;;;;2.33;1.10;;;3.30;91.30;;;;;;6280556;22;20003;-80
2022/01/07 04:11:29;;;;;;;2.03;1.15;;;3.30;91.40;;;;;;6252678;22;19996;-79
2022/01/07 04:13:55;;;;;;;2.85;1.20;;;3.30;91.40;;;;;;6280458;22;20130;-79
2022/01/07 04:16:21;;;;;;;1.33;0.80;;;3.30;91.40;;;;;;6279700;22;19999;-79
2022/01/07 04:18:46;;;;;;;1.77;1.10;;;3.30;91.40;;;;;;6277669;22;20343;-79
2022/01/07 04:21:12;;;;;;;2.38;1.10;;;3.30;91.40;;;;;;6269857;22;19995;-79
2022/01/07 04:23:38;;;;;;;2.63;1.35;;;3.30;91.40;;;;;;6273567;22;20463;-80
2022/01/07 04:26:04;;;;;;;2.70;1.50;;;3.30;91.40;;;;;;6275889;22;19989;-79
2022/01/07 04:28:30;;;;;;;4.07;1.50;;;3.20;91.70;;;;;;6247675;22;20026;-80
2022/01/07 04:30:56;;;;;;;1.75;1.08;;;3.30;91.40;;;;;;6249225;22;20011;-79
2022/01/07 04:33:26;;;;;;;1.92;1.27;;;3.20;91.40;;;;;;6228554;22;20007;-79
2022/01/07 04:35:53;;;;;;;2.72;1.13;;;3.20;91.40;;;;;;6247920;22;20362;-79
2022/01/07 04:38:20;;;;;;;4.80;1.50;;;3.20;91.40;;;;;;6251143;22;19999;-80
2022/01/07 04:40:46;;;;;;;3.72;1.70;;;3.20;91.50;;;;;;6249378;22;20000;-79
2022/01/07 04:43:12;;;;;;;2.55;1.30;;;3.10;91.50;;;;;;6246826;22;20003;-80
2022/01/07 04:45:38;;;;;;;1.73;1.30;;;3.10;91.60;;;;;;6246799;22;20493;-79
2022/01/07 04:48:04;;;;;;;2.05;1.30;;;3.00;91.60;;;;;;6276401;22;20007;-79
2022/01/07 04:50:31;;;;;;;1.40;0.95;;;3.00;91.60;;;;;;6249326;22;20000;-80
2022/01/07 04:52:57;;;;;;;1.38;0.95;;;3.00;91.70;;;;;;6302568;22;20466;-81
2022/01/07 04:55:25;;;;;;;2.10;1.02;;;3.00;91.70;;;;;;6277180;22;20007;-80
2022/01/07 04:57:52;;;;;;;1.92;0.90;;;3.00;92.00;;;;;;6252271;22;20065;-80
2022/01/07 05:00:21;;;;;;;1.73;0.95;;;3.10;91.80;;;;;;6246952;22;20006;-80
2022/01/07 05:02:47;;;;;;;2.40;1.13;;;3.10;91.80;;;;;;6288763;22;20026;-80
2022/01/07 05:05:13;;;;;;;1.40;0.98;;;3.00;91.70;;;;;;6255089;22;20343;-80
2022/01/07 05:07:40;;;;;;;2.53;1.10;;;3.10;91.70;;;;;;6277537;22;20004;-80
2022/01/07 05:10:10;;;;;;;2.42;1.30;;;3.10;91.70;;;;;;6256991;22;20008;-80
2022/01/07 05:12:36;;;;;;;1.73;1.20;;;3.10;91.70;;;;;;6304474;22;20004;-80
2022/01/07 05:15:05;;;;;;;2.05;1.27;;;3.10;91.60;;;;;;6259122;22;20022;-80
2022/01/07 05:17:32;;;;;;;1.90;1.05;;;3.20;91.70;;;;;;6236521;22;20007;-80
2022/01/07 05:19:58;;;;;;;2.25;1.30;;;3.20;91.90;;;;;;6303891;22;19999;-79
2022/01/07 05:22:23;;;;;;;4.93;1.50;;;3.30;91.70;;;;;;6251321;22;20328;-80
2022/01/07 05:24:49;;;;;;;2.05;1.10;;;3.30;91.70;;;;;;6274405;22;19995;-79
2022/01/07 05:27:15;;;;;;;1.90;1.23;;;3.20;91.60;;;;;;6287202;22;20000;-80
2022/01/07 05:29:41;;;;;;;2.92;1.38;;;3.30;91.70;;;;;;6281774;22;19988;-80
2022/01/07 05:32:07;;;;;;;2.17;1.25;;;3.40;91.70;;;;;;6255582;22;20074;-80
2022/01/07 05:34:33;;;;;;;2.70;1.58;;;3.30;91.70;;;;;;6310884;22;20007;-80
2022/01/07 05:36:59;;;;;;;2.25;1.30;;;3.30;91.60;;;;;;6260306;22;20317;-80
2022/01/07 05:39:25;;;;;;;1.35;1.15;;;3.40;91.60;;;;;;6283526;22;20093;-80
2022/01/07 05:41:51;;;;;;;1.90;0.93;;;3.40;91.60;;;;;;6286548;22;19991;-80
2022/01/07 05:44:17;;;;;;;2.67;1.40;;;3.40;91.60;;;;;;6228461;22;19999;-80
2022/01/07 05:46:43;;;;;;;2.13;1.20;;;3.50;91.60;;;;;;6308407;22;20424;-80
2022/01/07 05:49:09;;;;;;;1.58;1.10;;;3.40;91.60;;;;;;6287248;22;20037;-80
2022/01/07 05:51:35;;;;;;;2.60;1.20;;;3.50;91.60;;;;;;6288473;22;19983;-80
2022/01/07 05:54:01;;;;;;;3.28;1.60;;;3.60;91.70;;;;;;6267509;22;20002;-79
2022/01/07 05:56:26;;;;;;;1.90;1.20;;;3.50;91.60;;;;;;6282166;22;20114;-80
2022/01/07 05:58:53;;;;;;;1.75;1.33;;;3.60;91.70;;;;;;6247792;22;20015;-80
2022/01/07 06:01:19;;;;;;;2.47;1.33;;;3.60;91.70;;;;;;6306265;22;20022;-80
2022/01/07 06:03:44;;;;;;;2.83;1.50;;;3.50;91.60;;;;;;6256675;22;20039;-80
2022/01/07 06:06:10;;;;;;;2.72;1.60;;;3.50;91.60;;;;;;6280132;22;20014;-80
2022/01/07 06:08:37;;;;;;;2.58;1.42;;;3.70;91.70;;;;;;6283355;22;19995;-80
2022/01/07 06:11:03;;;;;;;4.90;1.73;;;3.70;91.70;;;;;;6285053;22;20000;-80
2022/01/07 06:13:29;;;;;;;3.08;1.90;;;3.70;91.60;;;;;;6279401;22;19995;-80
2022/01/07 06:15:55;;;;;;;3.47;1.60;;;3.70;91.60;;;;;;6255934;22;20018;-80
2022/01/07 06:18:20;;;;;;;3.58;1.98;;;3.80;91.60;;;;;;6232952;22;20073;-80
2022/01/07 06:20:46;;;;;;;4.00;1.83;;;3.80;91.60;;;;;;6285991;22;20002;-80
2022/01/07 06:23:12;;;;;;;3.72;1.95;;;3.80;91.60;;;;;;6259415;22;20084;-80
2022/01/07 06:25:38;;;;;;;3.00;1.70;;;3.80;91.60;;;;;;6257299;22;20277;-80
2022/01/07 06:28:04;;;;;;;3.38;2.00;;;4.00;91.70;;;;;;6279512;22;20733;-80
2022/01/07 06:30:29;;;;;;;4.13;2.10;;;3.90;91.70;;;;;;6261790;22;20029;-80
2022/01/07 06:32:55;;;;;;;3.65;2.00;;;3.90;91.70;;;;;;6232483;22;20427;-80
2022/01/07 06:35:21;;;;;;;3.33;1.85;;;3.90;91.70;;;;;;6286846;22;20090;-80
2022/01/07 06:37:47;;;;;;;3.08;1.80;;;3.90;91.70;;;;;;6240973;22;20093;-80
2022/01/07 06:40:13;;;;;;;3.47;2.05;;;4.00;91.70;;;;;;6285385;22;20006;-80
2022/01/07 06:42:39;;;;;;;3.50;1.92;;;4.10;91.70;;;;;;6284043;22;20007;-80
2022/01/07 06:45:06;;;;;;;5.10;1.90;;;4.10;91.70;;;;;;6284415;22;20000;-79
2022/01/07 06:47:31;;;;;;;4.25;2.20;;;4.10;91.70;;;;;;6314092;22;20019;-79
2022/01/07 06:49:57;;;;;;;3.83;1.92;;;4.10;91.70;;;;;;6283870;22;19988;-79
2022/01/07 06:52:23;;;;;;;4.78;2.10;;;4.10;91.70;;;;;;6279257;22;20008;-81
2022/01/07 06:54:49;;;;;;;2.97;1.77;;;4.20;91.80;;;;;;6222256;22;20022;-81
2022/01/07 06:57:15;;;;;;;3.65;2.15;;;4.20;91.70;;;;;;6273765;22;20138;-80
2022/01/07 06:59:41;;;;;;;3.55;1.80;;;4.20;91.70;;;;;;6299031;22;19999;-81
2022/01/07 07:02:07;;;;;;;3.17;1.98;;;4.20;91.70;;;;;;6226513;22;19992;-79
2022/01/07 07:04:33;;;;;;;3.67;2.03;;;4.20;91.80;;;;;;6251986;22;20011;-80
2022/01/07 07:07:01;;;;;;;4.10;2.13;;;4.20;91.70;;;;;;6248906;22;20008;-81
2022/01/07 07:09:27;;;;;;;5.30;2.08;;;4.20;91.80;;;;;;6188358;23;20040;-80
2022/01/07 07:11:53;;;;;;;4.80;2.60;;;4.40;91.80;;;;;;6188908;23;20008;-80
2022/01/07 07:14:18;;;;;;;3.70;2.30;;;4.30;91.80;;;;;;6161212;23;20476;-80
2022/01/07 07:16:44;;;;;;;5.63;2.60;;;4.30;91.80;;;;;;6161824;23;20016;-80
2022/01/07 07:19:10;;;;;;;3.53;2.30;;;4.30;91.80;;;;;;6185516;23;20058;-81
2022/01/07 07:21:36;;;;;;;4.47;2.20;;;4.40;91.80;;;;;;6162470;23;20000;-81
2022/01/07 07:24:03;;;;;;;3.75;2.20;;;4.30;91.80;;;;;;6187825;23;20310;-81
2022/01/07 07:26:29;;;;;;;5.32;2.30;;;4.30;91.80;;;;;;6163082;23;20062;-81
2022/01/07 07:28:55;;;;;;;5.13;2.22;;;4.30;91.90;;;;;;6185943;23;20444;-81
2022/01/07 07:31:21;;;;;;;4.45;1.92;;;4.30;91.90;;;;;;6161952;23;20107;-80
2022/01/07 07:34:08;;;;;;;4.00;2.50;;;4.40;91.90;;;;;;6190494;23;20039;-80
2022/01/07 07:36:33;;;;;;;5.13;2.30;;;4.40;91.90;;;;;;6155062;23;20013;-81
2022/01/07 07:39:02;;;;;;;3.90;2.30;;;4.40;91.90;;;;;;6182445;23;20357;-80
2022/01/07 07:41:29;;;;;;;2.90;2.00;;;4.40;91.80;;;;;;6263743;22;20458;-80
2022/01/07 07:43:57;;;;;;;4.43;2.42;;;4.50;91.90;;;;;;6224922;22;20003;-80
2022/01/07 07:46:24;;;;;;;5.93;2.75;;;4.50;91.90;;;;;;6273605;22;20006;-80
2022/01/07 07:48:51;;;;;;;4.88;2.58;;;4.50;91.90;;;;;;6268041;22;20004;-80
2022/01/07 07:51:18;;;;;;;4.07;2.30;;;4.60;91.80;;;;;;6248049;22;20420;-80
2022/01/07 07:53:44;;;;;;;4.03;2.50;;;4.60;91.80;;;;;;6275928;22;20444;-80
2022/01/07 07:56:13;;;;;;;5.18;2.60;;;4.50;91.80;;;;;;6273817;22;20004;-80
2022/01/07 07:58:39;;;;;;;4.38;2.47;;;4.60;91.80;;;;;;6275170;22;20423;-80
2022/01/07 08:01:06;;;;;;;5.28;2.88;;;4.70;91.90;;;;;;6241391;22;20115;-80
2022/01/07 08:03:32;;;;;;;6.20;2.65;;;4.60;91.80;;;;;;6248389;22;20007;-79
2022/01/07 08:05:59;;;;;;;3.20;2.13;;;4.70;91.90;;;;;;6297947;22;20450;-80
2022/01/07 08:08:24;;;;;;;3.83;2.30;;;4.70;91.90;;;;;;6222835;22;20454;-80
2022/01/07 08:10:54;;;;;;;4.30;2.30;;;4.70;91.90;;;;;;6272830;22;20004;-81
2022/01/07 08:13:29;;;;;;;5.10;2.55;;;4.60;91.90;;;;;;6272835;22;20435;-80
2022/01/07 08:15:59;;;;;;;3.85;2.42;;;4.70;91.90;;;;;;6225884;22;20035;-80
2022/01/07 08:18:29;;;;;;;4.22;2.28;;;4.70;92.20;;;;;;6272962;22;20065;-78
2022/01/07 08:20:57;;;;;;;4.60;2.25;;;4.70;91.90;;;;;;6298269;22;20069;-80
2022/01/07 08:23:23;;;;;;;5.05;2.78;;;4.70;91.90;;;;;;6222048;22;20363;-80
2022/01/07 08:25:49;;;;;;;4.88;2.67;;;4.60;91.90;;;;;;6273575;22;19996;-80
2022/01/07 08:28:16;;;;;;;5.30;3.03;;;4.80;92.00;;;;;;6273734;22;19999;-80
2022/01/07 08:31:24;;;;;;;4.35;3.00;;;4.70;91.90;;;;;;6274380;22;20084;-81
2022/01/07 08:36:11;;;;;;;6.35;2.97;;;4.80;91.90;;;;;;6272916;22;20050;-80
2022/01/07 08:38:37;;;;;;;5.25;2.97;;;4.80;91.90;;;;;;6274392;22;20011;-80
2022/01/07 08:41:03;;;;;;;4.72;2.78;;;4.80;91.90;;;;;;6274879;22;20091;-80
2022/01/07 08:43:29;;;;;;;6.10;3.50;;;4.90;91.90;;;;;;6248215;22;20023;-80
2022/01/07 08:45:55;;;;;;;5.63;3.17;;;4.90;91.90;;;;;;6222903;22;20049;-80
2022/01/07 08:48:21;;;;;;;5.05;3.10;;;4.90;91.90;;;;;;6272812;22;20003;-80
2022/01/07 08:50:47;;;;;;;7.07;3.30;;;4.90;91.90;;;;;;6272929;22;20011;-80
2022/01/07 08:53:13;;;;;;;6.95;3.35;;;5.00;91.90;;;;;;6275361;22;20002;-80
2022/01/07 08:55:38;;;;;;;6.45;3.10;;;5.00;91.90;;;;;;6274749;22;20008;-80
2022/01/07 08:58:04;;;;;;;5.80;3.30;;;5.00;91.90;;;;;;6271704;22;20091;-80
2022/01/07 09:00:31;;;;;;;4.00;2.45;;;5.00;91.90;;;;;;6274205;22;20008;-81
2022/01/07 09:02:57;;;;;;;4.43;2.58;;;5.00;91.80;;;;;;6250119;22;20011;-83
2022/01/07 09:05:22;;;;;;;5.53;2.88;;;5.10;91.80;;;;;;6248712;22;20444;-82
2022/01/07 09:07:48;;;;;;;5.30;2.53;;;5.10;91.80;;;;;;6273747;22;20385;-80
2022/01/07 09:10:14;;;;;;;4.60;2.85;;;5.10;91.80;;;;;;6276923;22;20007;-80
2022/01/07 09:12:41;;;;;;;5.18;2.53;;;5.30;91.90;;;;;;6250503;22;20007;-81
2022/01/07 09:15:07;;;;;;;4.05;2.15;;;5.20;91.90;;;;;;6301739;22;20090;-82
2022/01/07 09:17:34;;;;;;;5.38;2.33;;;5.20;91.80;;;;;;6277591;22;20003;-82
2022/01/07 09:20:00;;;;;;;4.28;2.22;;;5.20;91.80;;;;;;6286405;22;20501;-81
2022/01/07 09:22:25;;;;;;;3.88;2.50;;;5.20;91.80;;;;;;6282596;22;19996;-81
2022/01/07 09:24:51;;;;;;;4.25;2.60;;;5.30;91.80;;;;;;6249209;22;20078;-80
2022/01/07 09:27:17;;;;;;;3.35;2.33;;;5.40;91.90;;;;;;6275663;22;20003;-80
2022/01/07 09:29:43;;;;;;;5.15;2.72;;;5.20;91.80;;;;;;6275230;22;19999;-79
2022/01/07 09:32:09;;;;;;;4.18;2.50;;;5.30;91.80;;;;;;6223760;22;20083;-80
2022/01/07 09:34:36;;;;;;;3.88;2.40;;;5.30;91.90;;;;;;6274960;22;20000;-79
2022/01/07 09:37:03;;;;;;;4.20;2.60;;;5.30;91.80;;;;;;6273604;22;20031;-79
2022/01/07 09:39:28;;;;;;;4.55;2.42;;;5.30;91.90;;;;;;6247949;22;20432;-79
2022/01/07 09:41:54;;;;;;;3.80;2.35;;;5.30;91.90;;;;;;6280581;22;20069;-79
2022/01/07 09:44:20;;;;;;;4.88;2.55;;;5.30;91.90;;;;;;6250761;22;20292;-80
2022/01/07 09:46:49;;;;;;;5.68;2.92;;;5.40;91.90;;;;;;6280147;22;20075;-84
2022/01/07 09:49:15;;;;;;;5.13;2.78;;;5.40;91.90;;;;;;6234907;22;20000;-80
2022/01/07 09:51:44;;;;;;;4.78;2.78;;;5.40;91.80;;;;;;6279895;22;20000;-81
2022/01/07 09:54:10;;;;;;;7.00;2.85;;;5.50;91.80;;;;;;6274583;22;20424;-83
2022/01/07 09:56:37;;;;;;;5.07;2.67;;;5.40;91.80;;;;;;6247875;22;20002;-82
2022/01/07 09:59:05;;;;;;;4.60;2.47;;;5.50;91.80;;;;;;6276407;22;20000;-82
2022/01/07 10:01:51;;;;;;;4.00;2.45;;;5.60;91.80;;;;;;6247996;22;20011;-77
2022/01/07 10:04:26;;;;;;;6.18;3.17;;;5.60;92.00;;;;;;6273199;22;20007;-77
2022/01/07 10:07:21;;;;;;;4.85;2.83;;;5.60;91.70;;;;;;6273298;22;19996;-81
2022/01/07 10:10:04;;;;;;;5.28;3.10;;;5.60;91.70;;;;;;6248658;22;20004;-81
2022/01/07 10:12:54;;;;;;;4.20;2.70;;;5.60;91.70;;;;;;6302852;22;20003;-84
2022/01/07 10:15:25;;;;;;;6.90;3.00;;;5.70;91.70;;;;;;6251259;22;20000;-81
2022/01/07 10:27:16;;;;;;;4.80;2.78;;;5.90;91.60;;;;;;6036830;23;20490;-81
2022/01/07 10:36:41;;;;;;;4.75;2.58;;;6.20;91.30;;;;;;5965247;24;20076;-82
2022/01/07 10:39:58;;;;;;;6.05;3.72;;;6.20;91.30;;;;;;5966093;24;20077;-83
2022/01/07 10:42:25;;;;;;;8.65;4.05;;;6.20;91.20;;;;;;5952846;24;20476;-83
2022/01/07 10:45:17;;;;;;;7.05;3.88;;;6.10;91.20;;;;;;5949966;24;20019;-85
2022/01/07 10:48:06;;;;;;;5.78;3.70;;;6.00;91.40;;;;;;5963000;24;20017;-83
2022/01/07 10:50:39;;;;;;;5.68;3.70;;;6.00;91.40;;;;;;5956490;24;20016;-83
2022/01/07 10:53:21;;;;;;;4.68;2.80;;;6.10;91.50;;;;;;5955403;24;20170;-81
2022/01/07 10:56:11;;;;;;;4.35;2.75;;;6.10;91.50;;;;;;5876372;24;20078;-81
2022/01/07 10:58:51;;;;;;;3.90;2.40;;;6.20;91.50;;;;;;5835108;24;20029;-80
2022/01/07 11:01:33;;;;;;;4.93;2.67;;;6.30;91.40;;;;;;5973931;23;20007;-78
2022/01/07 11:04:01;;;;;;;4.05;2.40;;;6.40;91.40;;;;;;6041788;23;20007;-80
2022/01/07 11:06:28;;;;;;;6.07;2.40;;;6.50;91.30;;;;;;6038561;23;20410;-81
2022/01/07 11:08:55;;;;;;;4.50;2.40;;;6.60;91.20;;;;;;6093031;23;20021;-82
2022/01/07 11:11:24;;;;;;;4.85;2.70;;;6.50;91.20;;;;;;6076650;23;20843;-80
2022/01/07 11:13:50;;;;;;;5.50;2.20;;;6.50;91.20;;;;;;6126753;23;20005;-81
2022/01/07 11:16:17;;;;;;;4.20;2.45;;;6.50;91.20;;;;;;6118819;23;20025;-79
2022/01/07 11:18:45;;;;;;;4.18;2.40;;;6.50;91.30;;;;;;6155565;23;20017;-78
2022/01/07 11:21:11;;;;;;;5.15;2.30;;;6.50;91.20;;;;;;6128486;23;20017;-82
2022/01/07 11:36:40;;;;;;;4.35;2.42;;;6.60;91.20;;;;;;6060338;23;20074;-80
2022/01/07 11:40:23;;;;;;;4.82;2.42;;;6.60;91.20;;;;;;6039723;23;20022;-79
2022/01/07 11:43:33;;;;;;;5.35;2.55;;;6.60;91.20;;;;;;5937253;24;20124;-80
2022/01/07 11:46:37;;;;;;;3.33;2.10;;;6.80;91.20;;;;;;5863704;24;20036;-80
2022/01/07 11:49:38;;;;;;;6.32;2.50;;;6.90;91.00;;;;;;5892230;24;20112;-80
2022/01/07 11:52:32;;;;;;;5.07;2.60;;;7.00;90.90;;;;;;5894360;24;20028;-81
2022/01/07 11:55:31;;;;;;;5.85;2.67;;;7.00;90.70;;;;;;5850343;24;20029;-80
2022/01/07 11:58:03;;;;;;;3.50;2.30;;;6.90;90.70;;;;;;5913665;24;20021;-80
2022/01/07 12:01:03;;;;;;;5.38;2.25;;;6.90;90.80;;;;;;5972056;24;20008;-80
2022/01/07 12:04:27;;;;;;;4.45;2.30;;;6.80;90.80;;;;;;6006251;23;20012;-80
2022/01/07 12:08:00;;;;;;;4.63;2.28;;;6.90;90.90;;;;;;6067557;23;20018;-80
2022/01/07 12:10:32;;;;;;;5.78;2.50;;;6.80;90.80;;;;;;5929407;24;20030;-81
2022/01/07 12:13:00;;;;;;;4.93;2.03;;;6.80;90.80;;;;;;5996281;23;20462;-81
2022/01/07 12:15:27;;;;;;;3.85;2.13;;;6.80;90.80;;;;;;5994632;23;20012;-82
2022/01/07 12:18:21;;;;;;;3.85;2.15;;;6.80;90.80;;;;;;6037991;23;20019;-81
2022/01/07 12:24:08;;;;;;;5.05;2.38;;;6.90;90.80;;;;;;5959198;24;20116;-80
2022/01/07 12:26:46;;;;;;;4.28;1.98;;;6.90;90.80;;;;;;5976401;24;20020;-80
2022/01/07 12:37:21;;;;;;;3.75;1.85;;;7.00;90.70;;;;;;5935957;24;20099;-79
2022/01/07 12:39:53;;;;;;;2.83;1.70;;;7.10;90.60;;;;;;5915357;24;20012;-81
2022/01/07 12:42:19;;;;;;;;;;;7.40;90.60;;;;;;5955802;24;20095;-80
2022/01/07 12:44:47;;;;;;;3.15;1.73;;;7.20;90.50;;;;;;5978592;23;20382;-81
2022/01/07 12:47:15;;;;;;;4.45;2.28;;;7.30;90.40;;;;;;5959232;23;20479;-81
2022/01/07 12:49:45;;;;;;;4.00;2.22;;;7.20;90.30;;;;;;6005914;23;20444;-82
2022/01/07 12:52:21;;;;;;;5.57;2.30;;;7.30;90.30;;;;;;6006386;23;20487;-80
2022/01/07 12:54:59;;;;;;;4.78;2.42;;;7.20;90.30;;;;;;5959950;23;20042;-80
2022/01/07 12:57:36;;;;;;;3.35;2.25;;;7.20;90.30;;;;;;6031737;23;20440;-80
2022/01/07 13:00:22;;;;;;;5.03;2.33;;;7.20;90.30;;;;;;6131238;23;20009;-80
2022/01/07 13:02:51;;;;;;;3.15;1.92;;;7.10;90.40;;;;;;6172490;22;20459;-79
2022/01/07 13:05:35;;;;;;;5.95;2.45;;;7.00;90.40;;;;;;6247758;22;20016;-79
2022/01/07 13:08:10;;;;;;;4.88;2.10;;;7.00;90.50;;;;;;6266687;22;20145;-79
2022/01/07 13:10:43;;;;;;;4.65;2.33;;;6.90;90.50;;;;;;6248803;22;20034;-80
2022/01/07 13:13:12;;;;;;;3.97;2.10;;;6.90;90.50;;;;;;6284024;22;20011;-78
2022/01/07 13:15:51;;;;;;;4.43;2.00;;;6.90;90.60;;;;;;6268710;22;20026;-79
2022/01/07 13:18:30;;;;;;;3.00;1.80;;;6.90;90.60;;;;;;6241648;22;20023;-78
2022/01/07 13:21:15;;;;;;;4.85;2.00;;;6.90;90.60;;;;;;6267652;22;20000;-78
2022/01/07 13:23:51;;;;;;;3.58;1.80;;;6.90;90.50;;;;;;6265431;22;20004;-78
2022/01/07 13:26:20;;;;;;;4.32;2.08;;;6.80;90.50;;;;;;6267782;22;20019;-79
2022/01/07 13:28:48;;;;;;;6.65;2.40;;;6.80;90.50;;;;;;6241482;22;20016;-79
2022/01/07 13:31:19;;;;;;;4.30;2.20;;;6.80;90.50;;;;;;6266103;22;20011;-78
2022/01/07 13:33:44;;;;;;;4.67;2.10;;;7.00;90.60;;;;;;6241281;22;20090;-78
2022/01/07 13:36:13;;;;;;;3.75;2.13;;;6.80;90.60;;;;;;6258084;22;20022;-78
2022/01/07 13:38:39;;;;;;;5.07;2.20;;;6.80;90.50;;;;;;6264684;22;20088;-78
2022/01/07 13:41:15;;;;;;;5.22;2.45;;;6.80;90.50;;;;;;6287568;22;20091;-82
2022/01/07 13:43:43;;;;;;;4.65;2.60;;;6.80;90.50;;;;;;6238006;22;19996;-78
2022/01/07 13:46:16;;;;;;;4.95;2.45;;;6.70;90.40;;;;;;6242951;22;19980;-80
2022/01/07 13:49:05;;;;;;;3.72;2.40;;;6.80;90.50;;;;;;6263597;22;20007;-79
2022/01/07 13:51:32;;;;;;;3.63;2.03;;;6.80;90.50;;;;;;6293157;22;20016;-78